createdAt,value
2022-09-13T00:02:56.297Z,99983.34
2022-09-13T00:08:00.529Z,99979.88
2022-09-13T00:13:05.391Z,99960.09
2022-09-13T00:18:10.740Z,99950.53
2022-09-13T00:23:16.319Z,99945.59
2022-09-13T00:28:22.260Z,99935.72
2022-09-13T00:33:29.488Z,99928.78
2022-09-13T00:38:33.252Z,99934.63
2022-09-13T00:43:45.639Z,99928.50
2022-09-13T00:48:52.937Z,99927.38
2022-09-13T00:53:59.639Z,99907.78
2022-09-13T00:59:06.534Z,99914.41
2022-09-13T01:04:12.843Z,99907.03
2022-09-13T01:09:17.338Z,99898.81
2022-09-13T01:14:22.093Z,99907.91
2022-09-13T01:19:33.668Z,99898.41
2022-09-13T01:25:00.790Z,99900.75
2022-09-13T01:30:20.285Z,99894.34
2022-09-13T01:35:36.486Z,99888.59
2022-09-13T01:40:54.573Z,99904.09
2022-09-13T01:46:07.135Z,99891.25
2022-09-13T01:51:18.393Z,99886.28
2022-09-13T01:56:29.147Z,99886.00
2022-09-13T02:01:39.147Z,99878.94
2022-09-13T02:06:47.744Z,99872.16
2022-09-13T02:12:00.866Z,99863.78
2022-09-13T02:17:11.791Z,99849.94
2022-09-13T02:22:19.896Z,99856.84
2022-09-13T02:27:27.716Z,99852.75
2022-09-13T02:32:37.378Z,99840.09
2022-09-13T02:37:44.087Z,99825.28
2022-09-13T02:42:53.876Z,99821.50
2022-09-13T02:48:02.894Z,99796.47
2022-09-13T02:53:17.148Z,99803.91
2022-09-13T02:58:27.267Z,99807.69
2022-09-13T03:03:33.090Z,99812.31
2022-09-13T03:08:37.797Z,99821.22
2022-09-13T03:14:04.750Z,99816.78
2022-09-13T03:19:25.300Z,99821.59
2022-09-13T03:24:41.745Z,99804.81
2022-09-13T03:29:57.044Z,99801.53
2022-09-13T03:35:12.240Z,99807.97
2022-09-13T03:40:19.602Z,99793.50
2022-09-13T03:45:31.301Z,99797.78
2022-09-13T03:50:37.910Z,99783.59
2022-09-13T03:55:44.510Z,99797.59
2022-09-13T04:00:51.230Z,99786.03
2022-09-13T04:05:56.581Z,99787.22
2022-09-13T04:11:00.833Z,99787.09
2022-09-13T04:16:06.871Z,99780.53
2022-09-13T04:21:12.265Z,99779.22
2022-09-13T04:26:16.613Z,99792.06
2022-09-13T04:31:20.089Z,99787.25
2022-09-13T04:36:25.991Z,99781.00
2022-09-13T04:41:30.051Z,99788.25
2022-09-13T04:46:36.123Z,99778.69
2022-09-13T04:51:48.899Z,99773.09
2022-09-13T04:56:52.966Z,99770.78
2022-09-13T05:01:56.697Z,99770.56
2022-09-13T05:07:05.706Z,99758.59
2022-09-13T05:12:09.602Z,99759.22
2022-09-13T05:17:13.507Z,99768.06
2022-09-13T05:22:20.098Z,99752.00
2022-09-13T05:27:23.862Z,99749.47
2022-09-13T05:32:27.000Z,99753.34
2022-09-13T05:37:31.489Z,99748.63
2022-09-13T05:42:36.872Z,99764.59
2022-09-13T05:47:41.109Z,99757.72
2022-09-13T05:52:52.918Z,99754.72
2022-09-13T05:57:56.555Z,99746.44
2022-09-13T06:03:03.785Z,99736.38
2022-09-13T06:08:09.207Z,99732.03
2022-09-13T06:13:12.785Z,99734.06
2022-09-13T06:18:17.916Z,99739.44
2022-09-13T06:23:25.079Z,99753.13
2022-09-13T06:28:28.870Z,99760.06
2022-09-13T06:33:34.160Z,99766.78
2022-09-13T06:38:40.261Z,99774.06
2022-09-13T06:43:44.702Z,99771.63
2022-09-13T06:48:49.227Z,99772.44
2022-09-13T06:53:58.022Z,99762.69
2022-09-13T06:59:04.985Z,99751.66
2022-09-13T07:04:10.747Z,99747.00
2022-09-13T07:09:21.967Z,99757.66
2022-09-13T07:14:30.345Z,99753.00
2022-09-13T07:19:35.771Z,99757.66
2022-09-13T07:24:40.726Z,99756.84
2022-09-13T07:29:47.636Z,99748.09
2022-09-13T07:34:52.544Z,99742.25
2022-09-13T07:39:57.926Z,99755.09
2022-09-13T07:45:01.504Z,99751.69
2022-09-13T07:50:09.607Z,99735.69
2022-09-13T07:55:33.842Z,99743.75
2022-09-13T08:00:37.271Z,99751.34
2022-09-13T08:05:42.376Z,99750.44
2022-09-13T08:10:49.583Z,99742.97
2022-09-13T08:15:53.168Z,99746.75
2022-09-13T08:20:58.769Z,99749.50
2022-09-13T08:26:08.179Z,99754.31
2022-09-13T08:31:14.096Z,99743.78
2022-09-13T08:36:18.360Z,99740.28
2022-09-13T08:41:42.618Z,99737.69
2022-09-13T08:46:53.109Z,99732.69
2022-09-13T08:52:00.622Z,99729.84
2022-09-13T08:57:16.897Z,99733.56
2022-09-13T09:02:33.375Z,99722.78
2022-09-13T09:07:44.536Z,99729.56
2022-09-13T09:12:57.202Z,99726.53
2022-09-13T09:18:06.191Z,99716.97
2022-09-13T09:23:20.989Z,99724.16
2022-09-13T09:28:31.611Z,99715.38
2022-09-13T09:33:57.228Z,99704.53
2022-09-13T09:39:03.012Z,99701.41
2022-09-13T09:44:21.835Z,99701.69
2022-09-13T09:49:51.053Z,99706.69
2022-09-13T09:55:05.366Z,99708.78
2022-09-13T10:00:24.968Z,99690.16
2022-09-13T10:05:32.581Z,99696.72
2022-09-13T10:10:45.343Z,99685.56
2022-09-13T10:15:58.274Z,99679.38
2022-09-13T10:21:06.588Z,99674.94
2022-09-13T10:26:13.570Z,99670.88
2022-09-13T10:31:21.665Z,99659.56
2022-09-13T10:36:48.648Z,99656.22
2022-09-13T10:41:59.094Z,99655.41
2022-09-13T10:47:07.587Z,99654.78
2022-09-13T10:52:33.182Z,99659.88
2022-09-13T10:57:39.365Z,99664.50
2022-09-13T11:03:10.780Z,99658.84
2022-09-13T11:08:40.259Z,99658.16
2022-09-13T11:13:57.885Z,99649.09
2022-09-13T11:19:21.545Z,99646.09
2022-09-13T11:24:47.611Z,99631.00
2022-09-13T11:30:12.486Z,99629.38
2022-09-13T11:35:39.755Z,99621.25
2022-09-13T11:40:52.794Z,99613.91
2022-09-13T11:46:04.937Z,99604.84
2022-09-13T11:51:24.119Z,99609.31
2022-09-13T11:56:34.770Z,99599.50
2022-09-13T12:01:43.526Z,99605.47
2022-09-13T12:06:55.416Z,99597.09
2022-09-13T12:12:07.055Z,99594.97
2022-09-13T12:17:24.971Z,99591.25
2022-09-13T12:22:38.837Z,99585.44
2022-09-13T12:27:52.305Z,99587.66
2022-09-13T12:32:59.168Z,99584.13
2022-09-13T12:38:36.990Z,99585.44
2022-09-13T12:44:28.567Z,99585.44
2022-09-13T12:50:21.565Z,99584.25
2022-09-13T12:55:57.888Z,99567.66
2022-09-13T13:01:12.556Z,99571.38
2022-09-13T13:06:27.837Z,99568.94
2022-09-13T13:11:45.568Z,99563.81
2022-09-13T13:16:49.993Z,99568.69
2022-09-13T13:21:55.873Z,99558.09
2022-09-13T13:27:01.689Z,99553.88
2022-09-13T13:32:14.738Z,99546.66
2022-09-13T13:37:35.944Z,99540.97
2022-09-13T13:42:45.218Z,99538.31
2022-09-13T13:48:15.309Z,99526.13
2022-09-13T13:53:24.258Z,99522.63
2022-09-13T13:58:48.371Z,99519.47
2022-09-13T14:04:05.268Z,99517.28
2022-09-13T14:09:24.183Z,99513.44
2022-09-13T14:14:45.817Z,99519.25
2022-09-13T14:19:56.601Z,99512.75
2022-09-13T14:25:15.053Z,99519.72
2022-09-13T14:30:25.014Z,99498.91
2022-09-13T14:35:30.670Z,99500.84
2022-09-13T14:40:34.084Z,99496.53
2022-09-13T14:45:39.916Z,99497.03
2022-09-13T14:50:51.295Z,99498.00
2022-09-13T14:55:56.417Z,99493.28
2022-09-13T15:01:05.756Z,99488.63
2022-09-13T15:06:12.782Z,99490.38
2022-09-13T15:11:29.091Z,99494.59
2022-09-13T15:16:34.694Z,99484.94
2022-09-13T15:21:38.789Z,99489.72
2022-09-13T15:26:42.530Z,99483.22
2022-09-13T15:31:47.297Z,99479.78
2022-09-13T15:37:03.106Z,99497.47
2022-09-13T15:42:07.671Z,99502.22
2022-09-13T15:47:23.562Z,99499.22
2022-09-13T15:52:30.344Z,99508.41
2022-09-13T15:57:35.293Z,99501.22
2022-09-13T16:02:41.552Z,99501.44
2022-09-13T16:07:47.326Z,99498.31
2022-09-13T16:12:52.061Z,99499.94
2022-09-13T16:18:00.195Z,99499.06
2022-09-13T16:23:04.521Z,99511.28
2022-09-13T16:28:09.472Z,99510.91
2022-09-13T16:33:18.210Z,99511.63
2022-09-13T16:38:24.828Z,99514.75
2022-09-13T16:43:28.464Z,99504.50
2022-09-13T16:48:35.962Z,99515.75
2022-09-13T16:53:42.718Z,99506.56
2022-09-13T16:58:49.637Z,99513.81
2022-09-13T17:03:56.625Z,99509.47
2022-09-13T17:09:03.425Z,99512.34
2022-09-13T17:14:09.600Z,99507.38
2022-09-13T17:19:17.405Z,99510.94
2022-09-13T17:24:21.239Z,99518.00
2022-09-13T17:29:26.299Z,99513.31
2022-09-13T17:34:32.916Z,99516.91
2022-09-13T17:39:36.589Z,99516.59
2022-09-13T17:44:40.214Z,99497.22
2022-09-13T17:49:46.848Z,99516.78
2022-09-13T17:54:50.667Z,99512.19
2022-09-13T17:59:55.687Z,99493.84
2022-09-13T18:05:05.702Z,99503.13
2022-09-13T18:10:38.728Z,99505.91
2022-09-13T18:15:40.161Z,99513.22
2022-09-13T18:20:48.269Z,99508.59
2022-09-13T18:26:03.009Z,99500.72
2022-09-13T18:31:11.591Z,99513.66
2022-09-13T18:36:22.750Z,99516.16
2022-09-13T18:41:29.073Z,99520.88
2022-09-13T18:46:37.870Z,99514.13
2022-09-13T18:51:46.636Z,99525.84
2022-09-13T18:56:53.513Z,99528.94
2022-09-13T19:01:58.232Z,99533.88
2022-09-13T19:07:10.471Z,99534.50
2022-09-13T19:12:13.723Z,99548.25
2022-09-13T19:17:17.089Z,99542.16
2022-09-13T19:22:21.740Z,99544.66
2022-09-13T19:27:24.885Z,99548.75
2022-09-13T19:32:28.327Z,99541.44
2022-09-13T19:37:33.936Z,99543.28
2022-09-13T19:42:37.139Z,99544.13
2022-09-13T19:48:27.745Z,99548.22
2022-09-13T19:53:04.963Z,99534.94
2022-09-13T19:58:08.691Z,99553.13
2022-09-13T20:03:13.533Z,99562.97
2022-09-13T20:08:19.734Z,99573.97
2022-09-13T20:13:27.465Z,99573.00
2022-09-13T20:18:31.502Z,99567.47
2022-09-13T20:23:37.992Z,99570.97
2022-09-13T20:28:42.368Z,99568.31
2022-09-13T20:33:47.340Z,99576.09
2022-09-13T20:38:53.530Z,99562.41
2022-09-13T20:44:02.147Z,99560.59
2022-09-13T20:49:09.555Z,99548.13
2022-09-13T20:54:16.583Z,99562.81
2022-09-13T20:59:23.794Z,99556.28
2022-09-13T21:04:27.980Z,99550.78
2022-09-13T21:09:33.151Z,99550.34
2022-09-13T21:14:38.084Z,99558.91
2022-09-13T21:19:43.041Z,99562.00
2022-09-13T21:24:47.809Z,99552.59
2022-09-13T21:29:51.353Z,99546.69
2022-09-13T21:34:55.229Z,99549.75
2022-09-13T21:40:00.535Z,99560.56
2022-09-13T21:45:05.143Z,99573.22
2022-09-13T21:50:10.953Z,99567.72
2022-09-13T21:55:17.792Z,99570.13
2022-09-13T22:00:21.731Z,99571.56
2022-09-13T22:05:25.181Z,99573.63
2022-09-13T22:10:31.650Z,99562.19
2022-09-13T22:15:37.810Z,99562.59
2022-09-13T22:20:43.291Z,99558.09
2022-09-13T22:25:54.800Z,99560.34
2022-09-13T22:31:04.676Z,99560.94
2022-09-13T22:36:10.715Z,99565.03
2022-09-13T22:41:18.372Z,99564.41
2022-09-13T22:46:24.960Z,99554.22
2022-09-13T22:51:31.427Z,99558.28
2022-09-13T22:56:38.211Z,99544.81
2022-09-13T23:01:43.938Z,99557.66
2022-09-13T23:06:49.964Z,99552.75
2022-09-13T23:11:55.611Z,99551.31
2022-09-13T23:16:59.032Z,99555.41
2022-09-13T23:22:02.341Z,99543.53
2022-09-13T23:27:07.942Z,99533.56
2022-09-13T23:32:15.013Z,99528.59
2022-09-13T23:37:18.949Z,99532.69
2022-09-13T23:42:25.644Z,99534.72
2022-09-13T23:47:30.277Z,99539.63
2022-09-13T23:52:34.414Z,99527.19
2022-09-13T23:57:40.102Z,99519.44
